Time;durP1;ratioP1;P1;durP2;ratioP2;P2;SDS_P1;SDS_P2;PMS_P1;PMS_P2;Temp;Humidity;BMP_temperature;BMP_pressure;BME280_temperature;BME280_humidity;BME280_pressure;Samples;Min_cycle;Max_cycle;Signal;HPM_P1;HPM_P2
2022/02/28 00:01:58;;;;;;;12.60;8.80;;;3.90;99.90;;;;;;5105850;28;20051;-71
2022/02/28 00:04:25;;;;;;;13.30;7.70;;;3.90;99.90;;;;;;5081476;28;20052;-71
2022/02/28 00:06:54;;;;;;;13.07;7.60;;;3.80;99.90;;;;;;5100753;28;20458;-71
2022/02/28 00:09:21;;;;;;;15.13;8.33;;;3.70;99.90;;;;;;5098436;28;20056;-70
2022/02/28 00:11:46;;;;;;;16.27;8.43;;;3.70;99.90;;;;;;5069778;28;20108;-70
2022/02/28 00:14:13;;;;;;;15.85;9.18;;;3.60;99.90;;;;;;5095338;28;20044;-70
2022/02/28 00:16:39;;;;;;;11.73;7.47;;;3.50;99.90;;;;;;5099846;28;20056;-70
2022/02/28 00:19:05;;;;;;;13.48;7.72;;;3.50;99.90;;;;;;5102152;28;20089;-71
2022/02/28 00:21:31;;;;;;;14.20;7.65;;;3.50;99.90;;;;;;5092096;28;20473;-70
2022/02/28 00:23:57;;;;;;;12.52;7.30;;;3.50;99.90;;;;;;5100828;28;20511;-70
2022/02/28 00:26:23;;;;;;;11.30;7.65;;;3.50;99.90;;;;;;5093589;28;20075;-71
2022/02/28 00:28:49;;;;;;;13.25;7.85;;;3.50;99.90;;;;;;5079100;28;20052;-71
2022/02/28 00:31:14;;;;;;;14.85;7.85;;;3.50;99.90;;;;;;5097906;28;20445;-71
2022/02/28 00:33:40;;;;;;;12.95;8.05;;;3.50;99.90;;;;;;5105705;28;20040;-70
2022/02/28 00:36:06;;;;;;;11.35;8.57;;;3.50;99.90;;;;;;5087671;28;20054;-70
2022/02/28 00:38:33;;;;;;;14.32;8.02;;;3.50;99.90;;;;;;5095405;28;20584;-71
2022/02/28 00:40:59;;;;;;;15.93;8.65;;;3.50;99.90;;;;;;5094651;28;20068;-71
2022/02/28 00:43:25;;;;;;;11.73;7.20;;;3.40;99.90;;;;;;5101160;28;20044;-71
2022/02/28 00:45:51;;;;;;;13.93;8.45;;;3.50;99.90;;;;;;5091394;28;20450;-70
2022/02/28 00:48:17;;;;;;;15.05;9.18;;;3.50;99.90;;;;;;5088027;28;20093;-71
2022/02/28 00:50:43;;;;;;;13.55;7.82;;;3.50;99.90;;;;;;5097730;28;20047;-71
2022/02/28 00:53:09;;;;;;;17.50;9.27;;;3.40;99.90;;;;;;5104954;28;20491;-70
2022/02/28 00:55:35;;;;;;;13.63;8.65;;;3.40;99.90;;;;;;5106005;28;20032;-71
2022/02/28 00:58:00;;;;;;;13.45;8.15;;;3.50;99.90;;;;;;5099687;28;20048;-71
2022/02/28 01:00:26;;;;;;;13.43;7.70;;;3.50;99.90;;;;;;5104719;28;20044;-71
2022/02/28 01:02:52;;;;;;;14.63;8.43;;;3.50;99.90;;;;;;5090673;28;20044;-71
2022/02/28 01:05:19;;;;;;;13.93;8.07;;;3.40;99.90;;;;;;5091884;28;20072;-71
2022/02/28 01:07:46;;;;;;;12.63;8.18;;;3.30;99.90;;;;;;5095383;28;20040;-71
2022/02/28 01:10:15;;;;;;;13.02;8.20;;;3.20;99.90;;;;;;5103482;28;20051;-71
2022/02/28 01:12:41;;;;;;;13.55;8.65;;;3.20;99.90;;;;;;5097757;28;20048;-71
2022/02/28 01:15:09;;;;;;;16.73;8.30;;;3.20;99.90;;;;;;5099970;28;20042;-71
2022/02/28 01:17:35;;;;;;;12.82;8.45;;;3.20;99.90;;;;;;5090229;28;20056;-71
2022/02/28 01:20:02;;;;;;;20.08;8.63;;;3.20;99.90;;;;;;5093586;28;20079;-71
2022/02/28 01:22:28;;;;;;;15.40;9.13;;;3.20;99.90;;;;;;5093824;28;20040;-71
2022/02/28 01:24:54;;;;;;;16.23;9.55;;;3.20;99.90;;;;;;5098250;28;20047;-70
2022/02/28 01:27:19;;;;;;;17.25;9.40;;;3.00;99.90;;;;;;5100739;28;20048;-71
2022/02/28 01:29:46;;;;;;;16.95;8.82;;;3.00;99.90;;;;;;5094781;28;20071;-71
2022/02/28 01:32:11;;;;;;;15.48;10.25;;;3.00;99.90;;;;;;5097848;28;20664;-70
2022/02/28 01:34:38;;;;;;;14.75;9.20;;;3.00;99.90;;;;;;5102686;28;20050;-70
2022/02/28 01:37:03;;;;;;;15.50;9.10;;;3.00;99.90;;;;;;5095587;28;20049;-71
2022/02/28 01:39:29;;;;;;;16.38;9.65;;;2.90;99.90;;;;;;5088372;28;20047;-71
2022/02/28 01:41:55;;;;;;;14.90;9.68;;;2.90;99.90;;;;;;5097071;28;20075;-71
2022/02/28 01:44:21;;;;;;;15.57;9.85;;;2.90;99.90;;;;;;5101440;28;20051;-70
2022/02/28 01:46:47;;;;;;;13.98;9.23;;;2.80;99.90;;;;;;5100371;28;20044;-70
2022/02/28 01:49:12;;;;;;;14.55;10.02;;;2.80;99.90;;;;;;5098240;28;20044;-70
2022/02/28 01:51:39;;;;;;;18.50;10.02;;;2.90;99.90;;;;;;5100060;28;20051;-71
2022/02/28 01:54:06;;;;;;;19.63;10.38;;;2.70;99.90;;;;;;5096953;28;20040;-71
2022/02/28 01:56:33;;;;;;;16.90;9.85;;;2.70;99.90;;;;;;5094166;28;20088;-71
2022/02/28 01:58:59;;;;;;;19.85;9.45;;;2.60;99.90;;;;;;5102111;28;20119;-71
2022/02/28 02:01:25;;;;;;;18.52;10.25;;;2.70;99.90;;;;;;5096403;28;20040;-70
2022/02/28 02:03:50;;;;;;;15.18;9.80;;;2.70;99.90;;;;;;5104780;28;20404;-70
2022/02/28 02:06:19;;;;;;;18.00;10.35;;;2.70;99.90;;;;;;5092090;28;20444;-71
2022/02/28 02:08:45;;;;;;;18.23;10.00;;;2.70;99.90;;;;;;5101377;28;20036;-70
2022/02/28 02:11:12;;;;;;;16.33;9.60;;;2.80;99.90;;;;;;5106199;28;20044;-71
2022/02/28 02:13:38;;;;;;;16.95;9.27;;;2.80;99.90;;;;;;5102847;28;20048;-70
2022/02/28 02:16:04;;;;;;;16.55;9.15;;;2.80;99.90;;;;;;5094715;28;20044;-71
2022/02/28 02:18:30;;;;;;;14.68;8.52;;;2.80;99.90;;;;;;5102139;28;20051;-71
2022/02/28 02:20:56;;;;;;;15.93;8.88;;;2.90;99.90;;;;;;5094551;28;20052;-71
2022/02/28 02:23:22;;;;;;;13.35;8.80;;;2.80;99.90;;;;;;5099671;28;20039;-71
2022/02/28 02:25:48;;;;;;;13.45;8.20;;;2.70;99.90;;;;;;5109017;28;20048;-71
2022/02/28 02:28:17;;;;;;;15.15;9.32;;;2.60;99.90;;;;;;5109928;28;20184;-71
2022/02/28 02:30:48;;;;;;;15.35;8.90;;;2.60;99.90;;;;;;5108200;28;20482;-71
2022/02/28 02:33:15;;;;;;;14.32;8.90;;;2.60;99.90;;;;;;5106914;28;20078;-71
2022/02/28 02:35:58;;;;;;;13.15;9.05;;;2.60;99.90;;;;;;5096377;28;20115;-70
2022/02/28 02:38:25;;;;;;;15.93;8.82;;;2.60;99.90;;;;;;5100839;28;20083;-70
2022/02/28 02:40:51;;;;;;;13.48;8.63;;;2.60;99.90;;;;;;5107931;28;20048;-71
2022/02/28 02:43:17;;;;;;;14.10;8.02;;;2.60;99.90;;;;;;5100576;28;20029;-70
2022/02/28 02:45:43;;;;;;;14.57;8.98;;;2.60;99.90;;;;;;5095053;28;20067;-70
2022/02/28 02:48:18;;;;;;;13.80;9.02;;;2.70;99.90;;;;;;5104875;28;20033;-70
2022/02/28 02:50:44;;;;;;;15.75;9.30;;;2.50;99.90;;;;;;5103986;28;20051;-70
2022/02/28 02:53:11;;;;;;;14.23;8.80;;;2.60;99.90;;;;;;5106325;28;20040;-70
2022/02/28 02:55:37;;;;;;;15.60;9.23;;;2.50;99.90;;;;;;5107770;28;20052;-70
2022/02/28 02:58:04;;;;;;;16.83;10.15;;;2.40;99.90;;;;;;5099031;28;20040;-71
2022/02/28 03:00:31;;;;;;;12.05;8.73;;;2.40;99.90;;;;;;5085107;28;20523;-70
2022/02/28 03:02:57;;;;;;;15.13;9.55;;;2.40;99.90;;;;;;5096547;28;20101;-71
2022/02/28 03:05:23;;;;;;;16.30;9.60;;;2.30;99.90;;;;;;5101347;28;20524;-71
2022/02/28 03:07:49;;;;;;;17.23;9.30;;;2.30;99.90;;;;;;5098576;28;20118;-70
2022/02/28 03:10:15;;;;;;;14.25;8.90;;;2.30;99.90;;;;;;5106670;28;20122;-70
2022/02/28 03:12:41;;;;;;;15.82;10.20;;;2.30;99.90;;;;;;5100652;28;20381;-71
2022/02/28 03:15:07;;;;;;;16.88;9.55;;;2.30;99.90;;;;;;5098468;28;20071;-70
2022/02/28 03:17:34;;;;;;;17.95;9.35;;;2.20;99.90;;;;;;5105978;28;20516;-70
2022/02/28 03:20:00;;;;;;;14.48;8.98;;;2.20;99.90;;;;;;5106150;28;20408;-71
2022/02/28 03:22:26;;;;;;;16.90;9.90;;;2.20;99.90;;;;;;5094861;28;20052;-70
2022/02/28 03:24:52;;;;;;;15.88;9.48;;;2.20;99.90;;;;;;5099832;28;20057;-70
2022/02/28 03:27:17;;;;;;;15.82;9.70;;;2.20;99.90;;;;;;5106379;28;20059;-71
2022/02/28 03:29:43;;;;;;;12.90;8.80;;;2.20;99.90;;;;;;5101545;28;20044;-71
2022/02/28 03:32:09;;;;;;;16.25;9.52;;;2.10;99.90;;;;;;5099484;28;20043;-70
2022/02/28 03:34:35;;;;;;;16.63;9.43;;;2.20;99.90;;;;;;5101046;28;20048;-71
2022/02/28 03:37:01;;;;;;;14.27;9.43;;;2.10;99.90;;;;;;5091578;28;20052;-70
2022/02/28 03:39:26;;;;;;;17.58;9.98;;;2.10;99.90;;;;;;5089533;28;20045;-70
2022/02/28 03:41:55;;;;;;;15.07;10.10;;;2.10;99.90;;;;;;5094495;28;20056;-70
2022/02/28 03:44:22;;;;;;;15.48;9.48;;;2.10;99.90;;;;;;5099030;28;20044;-70
2022/02/28 03:46:49;;;;;;;15.70;9.40;;;2.00;99.90;;;;;;5102867;28;20059;-70
2022/02/28 03:49:19;;;;;;;18.55;10.40;;;1.90;99.90;;;;;;5094694;28;20108;-70
2022/02/28 03:51:45;;;;;;;19.92;10.02;;;1.90;99.90;;;;;;5101205;28;20097;-70
2022/02/28 03:54:11;;;;;;;15.95;9.75;;;1.90;99.90;;;;;;5096919;28;20047;-70
2022/02/28 03:56:41;;;;;;;14.63;9.60;;;2.00;99.90;;;;;;5104083;28;20047;-70
2022/02/28 03:59:09;;;;;;;14.10;9.82;;;1.90;99.90;;;;;;5091634;28;20048;-70
2022/02/28 04:01:35;;;;;;;17.38;9.90;;;1.80;99.90;;;;;;5093390;28;20040;-70
2022/02/28 04:04:02;;;;;;;16.95;9.48;;;1.80;99.90;;;;;;5101488;28;20041;-70
2022/02/28 04:06:29;;;;;;;18.77;9.88;;;1.70;99.90;;;;;;5102629;28;20063;-70
2022/02/28 04:08:55;;;;;;;15.20;9.85;;;1.60;99.90;;;;;;5095876;28;20495;-71
2022/02/28 04:11:21;;;;;;;16.85;10.98;;;1.70;99.90;;;;;;5098629;28;20504;-70
2022/02/28 04:13:47;;;;;;;17.55;10.45;;;1.60;99.90;;;;;;5102236;28;20500;-70
2022/02/28 04:16:13;;;;;;;17.75;10.73;;;1.60;99.90;;;;;;5102546;28;20108;-71
2022/02/28 04:18:39;;;;;;;18.85;10.82;;;1.60;99.90;;;;;;5096972;28;20114;-70
2022/02/28 04:21:04;;;;;;;18.17;10.45;;;1.50;99.90;;;;;;5096794;28;20156;-70
2022/02/28 04:23:30;;;;;;;16.83;10.48;;;1.60;99.90;;;;;;5100577;28;20044;-70
2022/02/28 04:25:56;;;;;;;16.30;10.38;;;1.60;99.90;;;;;;5102848;28;20050;-70
2022/02/28 04:28:21;;;;;;;15.90;10.45;;;1.60;99.90;;;;;;5104215;28;20082;-70
2022/02/28 04:30:47;;;;;;;21.23;11.05;;;1.60;99.90;;;;;;5101349;28;20044;-70
2022/02/28 04:33:13;;;;;;;19.77;10.68;;;1.70;99.90;;;;;;5104178;28;20103;-70
2022/02/28 04:35:39;;;;;;;16.17;10.60;;;1.80;99.90;;;;;;5105045;28;20464;-70
2022/02/28 04:38:05;;;;;;;20.15;11.20;;;1.60;99.90;;;;;;5105084;28;20036;-70
2022/02/28 04:40:32;;;;;;;16.85;10.70;;;1.60;99.90;;;;;;5104544;28;20048;-70
2022/02/28 04:42:58;;;;;;;18.50;11.52;;;1.60;99.90;;;;;;5100042;28;20120;-70
2022/02/28 04:45:23;;;;;;;17.95;11.18;;;1.60;99.90;;;;;;5104142;28;20087;-70
2022/02/28 04:47:49;;;;;;;16.33;10.65;;;1.60;99.90;;;;;;5100858;28;20119;-70
2022/02/28 04:50:15;;;;;;;17.73;11.10;;;1.70;99.90;;;;;;5098655;28;20067;-70
2022/02/28 04:52:41;;;;;;;17.92;11.38;;;1.70;99.90;;;;;;5104186;28;20503;-70
2022/02/28 04:55:07;;;;;;;16.05;10.20;;;1.60;99.90;;;;;;5090595;28;20054;-70
2022/02/28 04:57:43;;;;;;;20.80;11.02;;;1.70;99.90;;;;;;5097762;28;20079;-71
2022/02/28 05:00:11;;;;;;;16.40;10.63;;;1.80;99.90;;;;;;5097512;28;20048;-70
2022/02/28 05:02:37;;;;;;;20.15;11.40;;;1.70;99.90;;;;;;5101009;28;20069;-71
2022/02/28 05:05:04;;;;;;;18.90;10.30;;;1.70;99.90;;;;;;5105278;28;20039;-70
2022/02/28 05:07:30;;;;;;;17.85;11.00;;;1.70;99.90;;;;;;5096943;28;20051;-70
2022/02/28 05:09:56;;;;;;;19.90;11.65;;;1.60;99.90;;;;;;5103184;28;20036;-70
2022/02/28 05:12:22;;;;;;;21.05;11.45;;;1.70;99.90;;;;;;5102931;28;20143;-70
2022/02/28 05:14:48;;;;;;;17.67;11.05;;;1.70;99.90;;;;;;5104315;28;20055;-70
2022/02/28 05:17:13;;;;;;;19.98;11.43;;;1.80;99.90;;;;;;5104046;28;20052;-70
2022/02/28 05:19:39;;;;;;;19.10;11.25;;;1.90;99.90;;;;;;5103371;28;20044;-70
2022/02/28 05:22:05;;;;;;;18.33;10.80;;;1.80;99.90;;;;;;5099433;28;20040;-70
2022/02/28 05:24:32;;;;;;;18.05;11.77;;;1.60;99.90;;;;;;5095517;28;20048;-70
2022/02/28 05:26:58;;;;;;;20.05;11.15;;;1.70;99.90;;;;;;5108336;28;20075;-70
2022/02/28 05:29:24;;;;;;;20.23;11.30;;;1.80;99.90;;;;;;5102517;28;20052;-70
2022/02/28 05:31:49;;;;;;;19.23;11.57;;;1.70;99.90;;;;;;5097312;28;20044;-69
2022/02/28 05:34:15;;;;;;;17.20;11.63;;;1.80;99.90;;;;;;5081072;28;20043;-70
2022/02/28 05:36:41;;;;;;;20.63;11.48;;;1.70;99.90;;;;;;5104987;28;20052;-70
2022/02/28 05:39:06;;;;;;;18.95;10.90;;;1.70;99.90;;;;;;5101887;28;20043;-70
2022/02/28 05:41:32;;;;;;;19.83;11.63;;;1.70;99.90;;;;;;5101881;28;20094;-70
2022/02/28 05:43:58;;;;;;;20.70;12.35;;;1.70;99.90;;;;;;5090202;28;20061;-72
2022/02/28 05:46:24;;;;;;;20.77;10.90;;;1.60;99.90;;;;;;5099977;28;20162;-71
2022/02/28 05:48:49;;;;;;;17.35;11.55;;;1.60;99.90;;;;;;5101611;28;20039;-70
2022/02/28 05:51:15;;;;;;;16.42;10.70;;;1.70;99.90;;;;;;5099440;28;20048;-69
2022/02/28 05:53:41;;;;;;;24.40;12.18;;;1.70;99.90;;;;;;5093814;28;20055;-69
2022/02/28 05:56:07;;;;;;;19.48;12.35;;;1.60;99.90;;;;;;5101587;28;20036;-70
2022/02/28 05:58:32;;;;;;;19.15;11.80;;;1.70;99.90;;;;;;5102492;28;20094;-70
2022/02/28 06:00:58;;;;;;;17.83;11.35;;;1.80;99.90;;;;;;5094635;28;20071;-69
2022/02/28 06:03:25;;;;;;;18.00;11.27;;;1.70;99.90;;;;;;5096950;28;20103;-70
2022/02/28 06:05:51;;;;;;;19.77;11.25;;;1.70;99.90;;;;;;5102973;28;20127;-69
2022/02/28 06:08:16;;;;;;;24.08;13.30;;;1.70;99.90;;;;;;5099048;28;20080;-68
2022/02/28 06:10:42;;;;;;;20.60;11.90;;;1.60;99.90;;;;;;5084855;28;20048;-68
2022/02/28 06:13:08;;;;;;;21.33;13.07;;;1.60;99.90;;;;;;5098828;28;20052;-68
2022/02/28 06:15:34;;;;;;;19.70;11.88;;;1.60;99.90;;;;;;5100402;28;20051;-67
2022/02/28 06:18:00;;;;;;;19.48;12.25;;;1.70;99.90;;;;;;5053826;28;20523;-67
2022/02/28 06:20:27;;;;;;;19.52;12.05;;;1.60;99.90;;;;;;5102726;28;20040;-69
2022/02/28 06:22:53;;;;;;;20.98;12.27;;;1.50;99.90;;;;;;5094918;28;20635;-69
2022/02/28 06:25:19;;;;;;;26.80;12.43;;;1.50;99.90;;;;;;5100085;28;20047;-68
2022/02/28 06:27:45;;;;;;;18.65;12.60;;;1.50;99.90;;;;;;5093983;28;20475;-68
2022/02/28 06:30:11;;;;;;;21.00;12.32;;;1.60;99.90;;;;;;5084102;28;20059;-68
2022/02/28 06:32:37;;;;;;;19.60;11.75;;;1.50;99.90;;;;;;5100763;28;20047;-68
2022/02/28 06:35:04;;;;;;;19.17;12.85;;;1.50;99.90;;;;;;5074916;28;20067;-67
2022/02/28 06:37:29;;;;;;;20.42;11.63;;;1.40;99.90;;;;;;5100233;28;20104;-67
2022/02/28 06:39:55;;;;;;;22.63;11.70;;;1.40;99.90;;;;;;5103029;28;20060;-69
2022/02/28 06:42:21;;;;;;;22.48;13.13;;;1.40;99.90;;;;;;5101579;28;20055;-69
2022/02/28 06:44:46;;;;;;;20.38;12.73;;;1.40;99.90;;;;;;5101006;28;20040;-74
2022/02/28 06:47:12;;;;;;;20.13;12.35;;;1.40;99.90;;;;;;5093899;28;20055;-76
2022/02/28 06:49:38;;;;;;;20.35;12.52;;;1.40;99.90;;;;;;5100426;28;20097;-76
2022/02/28 06:52:05;;;;;;;22.17;12.48;;;1.40;99.90;;;;;;5077287;28;20133;-80
2022/02/28 06:54:31;;;;;;;21.63;12.43;;;1.50;99.90;;;;;;5076760;28;20040;-78
2022/02/28 06:56:57;;;;;;;19.50;12.77;;;1.40;99.90;;;;;;5100342;28;20036;-76
2022/02/28 06:59:23;;;;;;;19.10;12.52;;;1.40;99.90;;;;;;5103483;28;20542;-75
2022/02/28 07:01:49;;;;;;;21.13;12.93;;;1.30;99.90;;;;;;5105398;28;20443;-79
2022/02/28 07:04:15;;;;;;;21.13;11.43;;;1.40;99.90;;;;;;5105447;28;20052;-75
2022/02/28 07:06:40;;;;;;;22.88;12.68;;;1.30;99.90;;;;;;5083340;28;20040;-80
2022/02/28 07:09:07;;;;;;;21.25;12.98;;;1.40;99.90;;;;;;5086297;28;20037;-74
2022/02/28 07:11:34;;;;;;;22.00;13.65;;;1.50;99.90;;;;;;5101864;28;20044;-74
2022/02/28 07:14:00;;;;;;;30.30;15.75;;;1.40;99.90;;;;;;5102937;28;20036;-75
2022/02/28 07:16:26;;;;;;;35.45;18.13;;;1.40;99.90;;;;;;5100571;28;20039;-74
2022/02/28 07:18:52;;;;;;;29.05;15.32;;;1.40;99.90;;;;;;5090645;28;20044;-80
2022/02/28 07:21:18;;;;;;;24.52;13.77;;;1.40;99.90;;;;;;5102218;28;20040;-81
2022/02/28 07:23:44;;;;;;;24.63;14.50;;;1.50;99.90;;;;;;5101736;28;20044;-81
2022/02/28 07:26:10;;;;;;;35.38;17.70;;;1.40;99.90;;;;;;5102870;28;20056;-80
2022/02/28 07:28:36;;;;;;;23.52;13.30;;;1.50;99.90;;;;;;5105336;28;20047;-81
2022/02/28 07:31:02;;;;;;;23.20;13.18;;;1.50;99.90;;;;;;5106414;28;20164;-80
2022/02/28 07:33:28;;;;;;;20.15;13.70;;;1.50;99.90;;;;;;5100782;28;20051;-81
2022/02/28 07:35:54;;;;;;;23.13;13.25;;;1.40;99.90;;;;;;5106201;28;20052;-81
2022/02/28 07:38:20;;;;;;;22.67;13.27;;;1.70;99.90;;;;;;5103243;28;20040;-80
2022/02/28 07:40:46;;;;;;;20.73;12.60;;;1.60;99.90;;;;;;5107594;28;20043;-80
2022/02/28 07:43:12;;;;;;;21.92;14.05;;;1.60;99.90;;;;;;5102360;28;20142;-80
2022/02/28 07:45:37;;;;;;;21.38;13.77;;;1.70;99.90;;;;;;5100426;28;20051;-81
2022/02/28 07:48:03;;;;;;;20.25;13.73;;;1.70;99.90;;;;;;5105236;28;20047;-80
2022/02/28 07:50:29;;;;;;;24.92;13.88;;;1.70;99.90;;;;;;5103126;28;20048;-79
2022/02/28 07:52:55;;;;;;;22.27;13.13;;;1.80;99.90;;;;;;5105036;28;20067;-80
2022/02/28 07:55:21;;;;;;;22.48;13.45;;;1.90;99.90;;;;;;5099067;28;20052;-80
2022/02/28 07:57:46;;;;;;;23.05;14.38;;;1.90;99.90;;;;;;5104599;28;20042;-80
2022/02/28 08:00:13;;;;;;;22.50;14.02;;;1.90;99.90;;;;;;5099202;28;20103;-80
2022/02/28 08:02:39;;;;;;;20.67;12.82;;;2.00;99.90;;;;;;5104373;28;20052;-81
2022/02/28 08:05:05;;;;;;;24.35;13.85;;;2.10;99.90;;;;;;5099064;28;20426;-81
2022/02/28 08:07:31;;;;;;;21.23;13.13;;;2.10;99.90;;;;;;5092213;28;20445;-81
2022/02/28 08:09:56;;;;;;;22.55;14.23;;;2.20;99.90;;;;;;5099095;28;20063;-81
2022/02/28 08:12:24;;;;;;;20.50;12.68;;;2.10;99.90;;;;;;5104493;28;20063;-81
2022/02/28 08:14:50;;;;;;;22.42;13.82;;;2.20;99.90;;;;;;5103256;28;20063;-82
2022/02/28 08:17:15;;;;;;;20.25;13.13;;;2.30;99.90;;;;;;5097090;28;20043;-81
2022/02/28 08:19:41;;;;;;;24.25;14.38;;;2.30;99.90;;;;;;5085481;28;20058;-81
2022/02/28 08:22:07;;;;;;;21.20;13.65;;;2.30;99.90;;;;;;5103785;28;20051;-82
2022/02/28 08:24:33;;;;;;;24.20;13.85;;;2.30;99.90;;;;;;5099716;28;20056;-82
2022/02/28 08:26:58;;;;;;;20.70;13.40;;;2.50;99.90;;;;;;5104274;28;20059;-82
2022/02/28 08:29:24;;;;;;;20.88;13.13;;;2.60;99.90;;;;;;5102723;28;20048;-80
2022/02/28 08:31:51;;;;;;;20.73;13.18;;;2.70;99.90;;;;;;5103129;28;20062;-82
2022/02/28 08:34:18;;;;;;;19.67;14.10;;;2.60;99.90;;;;;;5096145;28;20043;-82
2022/02/28 08:36:44;;;;;;;23.20;13.70;;;2.80;99.90;;;;;;5103630;28;20055;-82
2022/02/28 08:39:09;;;;;;;24.67;13.95;;;2.70;99.90;;;;;;5105289;28;20044;-82
2022/02/28 08:41:36;;;;;;;21.23;14.25;;;2.80;99.90;;;;;;5104282;28;20089;-82
2022/02/28 08:44:03;;;;;;;20.35;12.45;;;2.90;99.90;;;;;;5103128;28;20052;-83
2022/02/28 08:46:28;;;;;;;19.88;12.82;;;3.00;99.90;;;;;;5104160;28;20469;-81
2022/02/28 08:48:54;;;;;;;21.00;12.52;;;3.10;99.90;;;;;;5095355;28;20056;-83
2022/02/28 08:51:20;;;;;;;20.75;13.27;;;3.10;99.90;;;;;;5099226;28;20052;-82
2022/02/28 08:53:45;;;;;;;23.85;14.32;;;3.20;99.90;;;;;;5093431;28;20103;-85
2022/02/28 08:56:11;;;;;;;18.13;12.63;;;3.10;99.90;;;;;;5097941;28;21036;-82
2022/02/28 08:58:37;;;;;;;22.45;12.95;;;3.30;99.90;;;;;;5099041;28;20044;-82
2022/02/28 09:01:03;;;;;;;23.52;13.73;;;3.50;99.90;;;;;;5098209;28;20192;-82
2022/02/28 09:03:28;;;;;;;19.88;13.00;;;3.50;99.90;;;;;;5098872;28;20492;-83
2022/02/28 09:05:54;;;;;;;20.92;13.45;;;3.70;99.90;;;;;;5097576;28;20044;-81
2022/02/28 09:08:20;;;;;;;22.55;14.02;;;3.70;99.90;;;;;;5100358;28;20047;-82
2022/02/28 09:10:45;;;;;;;18.58;12.55;;;3.80;99.90;;;;;;5101653;28;20043;-82
2022/02/28 09:13:11;;;;;;;20.23;12.77;;;3.80;99.90;;;;;;5105173;28;20046;-82
2022/02/28 09:15:37;;;;;;;19.60;12.77;;;3.90;99.90;;;;;;5096704;28;20044;-82
2022/02/28 09:18:07;;;;;;;19.45;11.20;;;4.00;99.90;;;;;;5080786;28;20057;-82
2022/02/28 09:20:34;;;;;;;18.92;12.52;;;4.20;99.90;;;;;;5099780;28;20072;-86
2022/02/28 09:22:59;;;;;;;17.35;11.35;;;4.50;99.90;;;;;;5083206;28;20383;-82
2022/02/28 09:25:25;;;;;;;19.55;12.43;;;4.60;99.90;;;;;;5088901;28;20079;-82
2022/02/28 09:27:51;;;;;;;19.17;13.43;;;4.70;99.90;;;;;;5090937;28;20090;-82
2022/02/28 09:30:17;;;;;;;20.15;12.15;;;4.70;99.90;;;;;;5097042;28;20056;-83
2022/02/28 09:32:43;;;;;;;22.33;12.85;;;4.90;99.90;;;;;;5091037;28;20057;-83
2022/02/28 09:35:09;;;;;;;21.77;13.48;;;5.00;99.90;;;;;;5103394;28;20047;-82
2022/02/28 09:37:34;;;;;;;19.00;12.45;;;5.00;99.90;;;;;;5103374;28;20109;-82
2022/02/28 09:40:00;;;;;;;18.85;13.38;;;5.10;99.90;;;;;;5090087;28;20127;-82
2022/02/28 09:42:27;;;;;;;18.30;12.30;;;5.20;99.90;;;;;;5098661;28;20044;-82
2022/02/28 09:44:54;;;;;;;24.60;13.05;;;5.10;99.90;;;;;;5102590;28;20198;-82
2022/02/28 09:47:21;;;;;;;18.63;12.15;;;5.30;99.90;;;;;;5092280;28;20040;-82
2022/02/28 09:49:47;;;;;;;19.00;12.57;;;5.30;99.90;;;;;;5102688;28;20394;-82
2022/02/28 09:52:13;;;;;;;18.33;11.88;;;5.50;99.90;;;;;;5102823;28;20080;-83
2022/02/28 09:54:39;;;;;;;18.17;12.05;;;5.50;99.90;;;;;;5101503;28;20577;-83
2022/02/28 09:57:09;;;;;;;15.88;11.70;;;5.60;99.90;;;;;;5099199;28;20036;-82
2022/02/28 09:59:38;;;;;;;17.02;12.20;;;5.80;99.90;;;;;;5083861;28;20048;-82
2022/02/28 10:02:04;;;;;;;16.90;12.20;;;6.00;99.90;;;;;;5100439;28;20098;-82
2022/02/28 10:04:30;;;;;;;18.65;10.82;;;6.10;99.90;;;;;;5092471;28;20055;-82
2022/02/28 10:06:56;;;;;;;18.80;11.50;;;6.20;99.90;;;;;;5096027;28;20041;-82
2022/02/28 10:09:23;;;;;;;15.52;10.65;;;6.30;99.90;;;;;;5103695;28;20369;-82
2022/02/28 10:11:51;;;;;;;11.73;8.18;;;6.50;99.90;;;;;;5096165;28;20045;-83
2022/02/28 10:14:17;;;;;;;11.90;8.60;;;6.80;99.90;;;;;;5099123;28;20052;-82
2022/02/28 10:16:57;;;;;;;11.57;7.90;;;7.10;99.90;;;;;;5098270;28;20136;-84
2022/02/28 10:19:25;;;;;;;12.70;8.65;;;7.60;99.90;;;;;;5087757;28;20044;-83
2022/02/28 10:21:53;;;;;;;11.73;8.63;;;7.70;99.90;;;;;;5093538;28;20401;-82
2022/02/28 10:24:20;;;;;;;13.18;8.20;;;7.90;99.90;;;;;;5096705;28;20039;-83
2022/02/28 10:26:56;;;;;;;13.13;8.57;;;7.90;99.90;;;;;;5095500;28;20052;-82
2022/02/28 10:29:23;;;;;;;13.45;8.32;;;8.00;99.90;;;;;;5105091;28;20544;-82
2022/02/28 10:31:49;;;;;;;13.10;9.32;;;8.30;99.90;;;;;;5105323;28;20052;-83
2022/02/28 10:34:23;;;;;;;11.00;8.48;;;8.30;99.90;;;;;;5106624;28;20043;-82
2022/02/28 10:37:03;;;;;;;11.48;8.50;;;8.50;99.90;;;;;;5098160;28;20048;-80
2022/02/28 10:39:36;;;;;;;11.05;8.75;;;8.50;99.90;;;;;;5101581;28;20056;-81
2022/02/28 10:42:08;;;;;;;13.05;9.02;;;8.60;99.90;;;;;;5106526;28;20044;-80
2022/02/28 10:44:35;;;;;;;12.55;8.80;;;8.70;99.90;;;;;;5088035;28;20107;-80
2022/02/28 10:47:07;;;;;;;12.93;9.52;;;8.80;99.90;;;;;;5103549;28;20048;-80
2022/02/28 10:49:35;;;;;;;11.27;8.48;;;9.00;99.90;;;;;;5102631;28;20093;-81
2022/02/28 10:52:09;;;;;;;11.65;8.68;;;9.10;99.90;;;;;;5102861;28;20039;-82
2022/02/28 10:54:40;;;;;;;15.13;9.50;;;9.30;99.90;;;;;;5103101;28;20052;-80
2022/02/28 10:57:09;;;;;;;13.35;8.80;;;9.20;99.90;;;;;;5088841;28;20044;-82
2022/02/28 10:59:42;;;;;;;13.23;8.48;;;9.30;99.90;;;;;;5103842;28;20044;-81
2022/02/28 11:02:10;;;;;;;11.30;7.60;;;9.50;99.90;;;;;;5106708;28;20048;-82
2022/02/28 11:04:39;;;;;;;15.45;9.63;;;9.60;99.90;;;;;;5106673;28;20044;-81
2022/02/28 11:07:07;;;;;;;11.98;8.48;;;9.40;99.90;;;;;;5103139;28;20080;-81
2022/02/28 11:09:35;;;;;;;11.93;8.73;;;9.50;99.90;;;;;;5103369;28;20055;-81
2022/02/28 11:12:25;;;;;;;13.05;8.45;;;9.50;99.90;;;;;;5098030;28;20472;-81
2022/02/28 11:14:53;;;;;;;14.10;9.55;;;9.50;99.90;;;;;;5102020;28;20054;-82
2022/02/28 11:17:23;;;;;;;11.98;8.48;;;9.20;99.90;;;;;;5086270;28;20058;-82
2022/02/28 11:19:50;;;;;;;12.32;8.18;;;9.30;99.90;;;;;;5084219;28;20075;-82
2022/02/28 11:22:17;;;;;;;12.40;9.43;;;9.50;99.90;;;;;;5100355;28;20044;-82
2022/02/28 11:24:44;;;;;;;14.85;9.88;;;9.40;99.90;;;;;;5104416;28;20052;-82
2022/02/28 11:27:10;;;;;;;15.18;8.35;;;9.40;99.90;;;;;;5095990;28;20049;-82
2022/02/28 11:29:37;;;;;;;14.00;9.40;;;9.50;99.90;;;;;;5100631;28;20059;-81
2022/02/28 11:32:06;;;;;;;11.73;8.93;;;9.60;99.90;;;;;;5097342;28;20126;-82
2022/02/28 11:34:31;;;;;;;14.57;8.98;;;9.60;99.90;;;;;;5096176;28;20051;-81
2022/02/28 11:37:01;;;;;;;13.00;8.82;;;9.50;99.90;;;;;;5076478;28;20037;-82
2022/02/28 11:39:32;;;;;;;14.33;8.77;;;9.60;99.90;;;;;;5101398;28;20100;-81
2022/02/28 11:41:59;;;;;;;12.52;8.65;;;9.40;99.90;;;;;;5097362;28;20044;-82
2022/02/28 11:44:25;;;;;;;12.57;8.90;;;9.50;99.90;;;;;;5101685;28;20048;-82
2022/02/28 11:46:59;;;;;;;12.88;9.88;;;9.70;99.90;;;;;;5100448;28;20575;-81
2022/02/28 11:49:25;;;;;;;13.70;9.32;;;9.70;99.90;;;;;;5102147;28;20043;-81
2022/02/28 11:51:51;;;;;;;13.93;9.13;;;9.60;99.90;;;;;;5099665;28;20044;-82
2022/02/28 11:54:16;;;;;;;12.75;8.98;;;9.60;99.90;;;;;;5100102;28;20048;-82
2022/02/28 11:56:45;;;;;;;13.27;10.02;;;9.80;99.90;;;;;;5102749;28;20067;-77
2022/02/28 11:59:16;;;;;;;12.05;8.35;;;9.80;99.90;;;;;;5085270;28;20488;-71
2022/02/28 12:01:50;;;;;;;12.32;9.32;;;9.90;99.90;;;;;;5067089;28;20047;-70
2022/02/28 12:04:32;;;;;;;12.82;9.70;;;10.00;99.90;;;;;;5099195;28;20070;-71
2022/02/28 12:07:10;;;;;;;11.05;8.70;;;10.30;99.90;;;;;;5099397;28;20058;-72
2022/02/28 12:09:46;;;;;;;14.30;8.77;;;10.50;99.90;;;;;;5083206;28;20048;-72
2022/02/28 12:12:27;;;;;;;13.35;8.60;;;10.50;99.90;;;;;;5081239;28;20048;-72
2022/02/28 12:14:56;;;;;;;14.57;9.15;;;10.80;99.90;;;;;;5102842;28;20054;-72
2022/02/28 12:17:48;;;;;;;14.25;9.20;;;11.10;99.90;;;;;;5098099;28;20109;-73
2022/02/28 12:20:32;;;;;;;14.35;9.40;;;11.30;99.90;;;;;;5033567;28;20413;-71
2022/02/28 12:23:05;;;;;;;14.02;9.65;;;11.40;99.90;;;;;;5084437;28;20048;-70
2022/02/28 12:25:49;;;;;;;12.45;9.38;;;11.70;99.90;;;;;;5090730;28;20044;-71
2022/02/28 12:28:34;;;;;;;14.63;10.52;;;11.50;99.90;;;;;;5098798;28;20048;-71
2022/02/28 12:31:10;;;;;;;11.23;8.80;;;11.50;99.90;;;;;;5093219;28;20591;-72
2022/02/28 12:33:38;;;;;;;12.88;9.60;;;12.00;99.90;;;;;;5088959;28;20039;-72
2022/02/28 12:36:16;;;;;;;13.30;9.45;;;12.20;99.90;;;;;;5069418;28;20051;-72
2022/02/28 12:38:46;;;;;;;11.30;8.82;;;12.60;99.80;;;;;;5093752;28;20226;-72
2022/02/28 12:41:14;;;;;;;12.27;8.95;;;12.60;99.90;;;;;;5082121;28;20109;-72